Time;durP1;ratioP1;P1;durP2;ratioP2;P2;SDS_P1;SDS_P2;PMS_P1;PMS_P2;Temp;Humidity;BMP_temperature;BMP_pressure;BME280_temperature;BME280_humidity;BME280_pressure;Samples;Min_cycle;Max_cycle;Signal;HPM_P1;HPM_P2
2023/09/08 00:00:53;;;;;;;11.18;8.80;;;;;;;20.49;59.71;95120.50;4194377;28;20048;-74
2023/09/08 00:02:55;;;;;;;14.75;9.20;;;;;;;20.48;59.92;95123.34;4200043;28;20055;-74
2023/09/08 00:04:57;;;;;;;12.63;8.75;;;;;;;20.48;60.01;95118.03;4176367;28;20076;-74
2023/09/08 00:06:59;;;;;;;12.40;8.23;;;;;;;20.50;60.04;95123.97;4194016;28;20068;-75
2023/09/08 00:09:02;;;;;;;12.02;8.40;;;;;;;20.46;60.16;95120.91;4194903;28;20585;-73
2023/09/08 00:11:05;;;;;;;12.95;9.38;;;;;;;20.42;60.55;95115.19;4195085;28;20362;-76
2023/09/08 00:13:06;;;;;;;11.15;9.30;;;;;;;20.43;60.39;95124.81;4194613;28;20052;-74
2023/09/08 00:15:09;;;;;;;11.13;9.38;;;;;;;20.43;60.46;95111.53;4181548;28;20119;-74
2023/09/08 00:17:10;;;;;;;15.18;9.40;;;;;;;20.44;60.56;95109.66;4194077;28;20054;-76
2023/09/08 00:19:13;;;;;;;10.85;8.50;;;;;;;20.44;60.19;95109.66;4169071;28;20049;-75
2023/09/08 00:21:14;;;;;;;10.32;8.10;;;;;;;20.46;59.56;95107.63;4194250;28;20182;-75
2023/09/08 00:23:16;;;;;;;10.70;7.65;;;;;;;20.41;59.22;95113.56;4185568;28;20106;-74
2023/09/08 00:25:18;;;;;;;10.93;8.40;;;;;;;20.41;58.69;95108.25;4184857;28;20095;-76
2023/09/08 00:27:20;;;;;;;9.95;8.27;;;;;;;20.40;58.16;95103.94;4186358;28;20125;-74
2023/09/08 00:29:22;;;;;;;12.25;8.15;;;;;;;20.42;58.25;95107.22;4181366;28;20480;-75
2023/09/08 00:31:25;;;;;;;8.20;6.93;;;;;;;20.35;57.78;95110.91;4190568;28;20482;-75
2023/09/08 00:33:29;;;;;;;9.45;7.32;;;;;;;20.24;57.34;95105.22;4183213;28;20122;-76
2023/09/08 00:35:31;;;;;;;11.40;7.40;;;;;;;20.23;57.04;95102.78;4183229;28;20044;-76
2023/09/08 00:37:33;;;;;;;9.63;7.45;;;;;;;20.25;56.81;95106.84;4185425;28;20079;-76
2023/09/08 00:39:36;;;;;;;9.77;7.00;;;;;;;20.21;56.56;95107.47;4183324;28;20051;-76
2023/09/08 00:41:37;;;;;;;8.13;6.57;;;;;;;20.21;56.38;95104.81;4193579;28;20048;-75
2023/09/08 00:43:39;;;;;;;9.98;6.40;;;;;;;20.14;56.52;95104.03;4165939;28;20081;-75
2023/09/08 00:45:42;;;;;;;9.98;6.40;;;;;;;20.13;56.67;95097.88;4185890;28;20048;-73
2023/09/08 00:47:44;;;;;;;8.52;6.50;;;;;;;20.18;56.54;95102.59;4174120;28;20504;-77
2023/09/08 00:49:46;;;;;;;11.60;6.55;;;;;;;20.11;56.51;95101.78;4191682;28;20057;-76
2023/09/08 00:51:48;;;;;;;12.48;6.47;;;;;;;20.09;56.52;95099.34;4189518;28;20065;-76
2023/09/08 00:53:50;;;;;;;7.88;5.95;;;;;;;20.15;56.46;95095.00;4179470;28;20060;-73
2023/09/08 00:55:52;;;;;;;8.50;5.65;;;;;;;20.16;56.14;95099.31;4168590;28;20539;-77
2023/09/08 00:57:54;;;;;;;10.75;6.50;;;;;;;20.16;55.80;95092.16;4175016;28;20053;-77
2023/09/08 00:59:55;;;;;;;10.55;6.05;;;;;;;20.13;55.80;95089.91;4188626;28;20091;-73
2023/09/08 01:01:57;;;;;;;10.82;6.07;;;;;;;20.15;55.91;95095.00;4186992;28;20045;-74
2023/09/08 01:03:59;;;;;;;11.10;6.35;;;;;;;20.16;55.84;95101.97;4193009;28;20048;-75
2023/09/08 01:06:01;;;;;;;7.32;5.70;;;;;;;20.13;56.05;95100.53;4194407;28;20048;-74
2023/09/08 01:08:03;;;;;;;9.50;6.15;;;;;;;20.08;55.88;95099.53;4188118;28;20135;-75
2023/09/08 01:10:06;;;;;;;7.22;5.30;;;;;;;20.05;55.83;95095.47;4189271;28;20118;-75
2023/09/08 01:12:08;;;;;;;12.05;6.55;;;;;;;19.97;56.07;95091.16;4201528;28;20053;-77
2023/09/08 01:14:12;;;;;;;6.38;5.25;;;;;;;19.90;55.96;95093.03;4190438;28;20469;-74
2023/09/08 01:16:14;;;;;;;10.38;6.30;;;;;;;19.98;56.01;95097.28;4173411;28;20048;-76
2023/09/08 01:18:15;;;;;;;10.63;7.40;;;;;;;19.98;56.15;95095.47;4182260;28;20055;-74
2023/09/08 01:20:21;;;;;;;7.03;5.50;;;;;;;20.03;56.05;95103.63;4191390;28;20427;-73
2023/09/08 01:22:53;;;;;;;10.02;6.72;;;;;;;19.87;56.39;95097.94;4174439;28;20367;-74
2023/09/08 01:25:19;;;;;;;8.80;5.60;;;;;;;19.91;56.50;95088.53;4184234;28;20493;-76
2023/09/08 01:27:22;;;;;;;9.15;6.22;;;;;;;19.89;56.56;95088.72;4183420;28;20440;-73
2023/09/08 01:29:25;;;;;;;8.73;5.32;;;;;;;19.89;56.80;95091.38;4179089;28;20057;-76
2023/09/08 01:31:27;;;;;;;9.33;5.70;;;;;;;19.85;56.93;95092.81;4179997;28;20432;-77
2023/09/08 01:33:29;;;;;;;7.68;5.75;;;;;;;19.89;56.90;95091.38;4169734;28;20140;-76
2023/09/08 01:35:31;;;;;;;9.75;5.07;;;;;;;19.93;56.98;95089.94;4180060;28;20110;-75
2023/09/08 01:37:33;;;;;;;8.75;5.20;;;;;;;19.90;57.08;95086.91;4189868;28;20133;-74
2023/09/08 01:39:35;;;;;;;14.50;7.85;;;;;;;19.86;57.12;95088.34;4186076;28;20053;-74
2023/09/08 01:41:37;;;;;;;9.90;5.05;;;;;;;19.83;57.49;95084.22;4195016;28;20440;-77
2023/09/08 01:43:39;;;;;;;15.50;5.65;;;;;;;19.74;57.71;95080.97;4204210;28;20435;-74
2023/09/08 01:45:40;;;;;;;6.85;5.13;;;;;;;19.69;57.67;95079.94;4184178;28;20099;-74
2023/09/08 01:47:42;;;;;;;9.00;5.03;;;;;;;19.75;57.66;95077.31;4172514;28;20063;-75
2023/09/08 01:49:44;;;;;;;10.32;5.53;;;;;;;19.80;57.83;95085.47;4166743;28;20044;-75
2023/09/08 01:51:46;;;;;;;7.50;4.70;;;;;;;19.79;57.75;95086.50;4189935;28;20080;-74
2023/09/08 01:53:47;;;;;;;6.75;4.93;;;;;;;19.83;57.59;95089.56;4195742;28;20352;-74
2023/09/08 01:55:49;;;;;;;9.60;5.25;;;;;;;19.80;57.73;95076.69;4192993;28;20050;-75
2023/09/08 01:57:50;;;;;;;11.85;5.60;;;;;;;19.74;57.99;95088.94;4198620;28;20121;-73
2023/09/08 01:59:54;;;;;;;10.38;5.10;;;;;;;19.59;58.74;95078.50;4191350;28;20098;-73
2023/09/08 02:01:57;;;;;;;7.60;4.72;;;;;;;19.57;59.07;95072.56;4194299;28;20140;-73
2023/09/08 02:03:59;;;;;;;10.18;5.72;;;;;;;19.51;59.71;95078.72;4192993;28;20460;-74
2023/09/08 02:06:00;;;;;;;8.73;5.00;;;;;;;19.47;59.67;95085.47;4205091;28;20074;-73
2023/09/08 02:08:03;;;;;;;23.95;18.10;;;;;;;19.45;60.08;95082.22;4195393;28;20384;-75
2023/09/08 02:10:05;;;;;;;8.27;5.30;;;;;;;19.41;60.37;95078.31;4174078;28;20045;-75
2023/09/08 02:12:07;;;;;;;6.00;5.30;;;;;;;19.46;60.25;95083.81;4193033;28;20282;-76
2023/09/08 02:14:09;;;;;;;8.93;5.53;;;;;;;19.50;60.14;95084.25;4184647;28;20084;-75
2023/09/08 02:16:15;;;;;;;8.82;5.28;;;;;;;19.51;60.25;95089.38;4180672;28;20060;-75
2023/09/08 02:18:16;;;;;;;9.48;5.60;;;;;;;19.50;60.44;95074.44;4195717;28;20055;-75
2023/09/08 02:20:19;;;;;;;9.02;5.90;;;;;;;19.50;60.68;95073.63;4173816;28;20539;-75
2023/09/08 02:22:21;;;;;;;9.35;5.53;;;;;;;19.47;61.22;95080.16;4192255;28;20057;-75
2023/09/08 02:24:23;;;;;;;10.23;5.82;;;;;;;19.33;61.83;95065.25;4176953;28;20063;-75
2023/09/08 02:26:26;;;;;;;6.72;6.03;;;;;;;19.28;62.43;95067.69;4196757;28;20052;-73
2023/09/08 02:28:28;;;;;;;10.77;6.35;;;;;;;19.26;62.23;95065.25;4192678;28;20573;-75
2023/09/08 02:30:29;;;;;;;8.95;6.07;;;;;;;19.29;62.45;95071.97;4194138;28;20135;-75
2023/09/08 02:32:31;;;;;;;8.30;5.90;;;;;;;19.28;62.57;95067.69;4196358;28;20097;-75
2023/09/08 02:34:37;;;;;;;10.32;6.32;;;;;;;19.19;63.09;95067.91;4195887;28;20059;-75
2023/09/08 02:36:38;;;;;;;9.65;6.25;;;;;;;19.17;63.15;95064.63;4207231;28;20436;-74
2023/09/08 02:38:40;;;;;;;16.63;6.72;;;;;;;19.16;63.19;95064.81;4196082;28;20377;-75
2023/09/08 02:40:43;;;;;;;8.93;6.45;;;;;;;19.17;63.31;95061.97;4193656;28;20475;-74
2023/09/08 02:42:44;;;;;;;19.83;7.32;;;;;;;19.12;63.73;95064.44;4195470;28;20436;-75
2023/09/08 02:44:46;;;;;;;9.38;7.63;;;;;;;19.05;64.23;95065.44;4194468;28;20071;-74
2023/09/08 02:46:48;;;;;;;9.93;6.25;;;;;;;18.93;64.59;95051.91;4194730;28;20056;-74
2023/09/08 02:48:49;;;;;;;10.52;6.78;;;;;;;18.78;65.42;95062.75;4192593;28;20048;-75
2023/09/08 02:50:53;;;;;;;9.37;6.90;;;;;;;18.69;65.90;95067.38;4195010;28;20079;-74
2023/09/08 02:52:55;;;;;;;11.85;8.15;;;;;;;18.66;66.19;95066.97;4195742;28;20277;-74
2023/09/08 02:54:57;;;;;;;10.45;7.35;;;;;;;18.67;66.58;95066.75;4196466;28;20407;-74
2023/09/08 02:56:59;;;;;;;10.43;7.32;;;;;;;18.65;66.66;95060.84;4195707;28;20059;-75
2023/09/08 02:59:00;;;;;;;12.77;7.85;;;;;;;18.63;66.69;95066.34;4189578;28;20087;-75
2023/09/08 03:01:16;;;;;;;15.15;7.72;;;;;;;18.68;66.64;95059.63;4195297;28;20055;-75
2023/09/08 03:03:18;;;;;;;10.32;7.53;;;;;;;18.66;67.01;95059.81;4178909;28;20121;-73
2023/09/08 03:05:20;;;;;;;10.05;7.50;;;;;;;18.57;67.26;95061.00;4188103;28;20041;-74
2023/09/08 03:07:22;;;;;;;9.23;7.72;;;;;;;18.51;67.73;95065.28;4193805;28;20053;-73
2023/09/08 03:09:24;;;;;;;15.73;8.43;;;;;;;18.50;67.79;95065.47;4194271;28;20049;-74
2023/09/08 03:11:25;;;;;;;14.88;8.00;;;;;;;18.56;67.85;95062.84;4177447;28;20461;-75
2023/09/08 03:13:28;;;;;;;13.05;8.27;;;;;;;18.67;67.51;95060.63;4187156;28;20056;-75
2023/09/08 03:15:31;;;;;;;11.07;7.90;;;;;;;18.74;67.29;95056.97;4178751;28;20041;-72
2023/09/08 03:17:32;;;;;;;11.60;8.98;;;;;;;18.67;67.53;95057.97;4194143;28;20044;-74
2023/09/08 03:19:34;;;;;;;10.88;8.48;;;;;;;18.67;67.38;95050.00;4188935;28;20044;-75
2023/09/08 03:21:36;;;;;;;10.85;7.78;;;;;;;18.62;67.82;95054.06;4181442;28;20076;-74
2023/09/08 03:23:38;;;;;;;10.63;8.10;;;;;;;18.66;67.88;95056.34;4193205;28;20057;-75
2023/09/08 03:25:40;;;;;;;15.05;8.25;;;;;;;18.44;68.31;95066.28;4177224;28;20463;-71
2023/09/08 03:27:42;;;;;;;10.73;8.00;;;;;;;18.33;68.75;95060.53;4194401;28;20052;-73
2023/09/08 03:29:43;;;;;;;12.88;8.00;;;;;;;18.27;68.96;95066.63;4194361;28;20045;-74
2023/09/08 03:31:45;;;;;;;10.80;8.02;;;;;;;18.28;68.82;95070.06;4194562;28;20389;-74
2023/09/08 03:33:47;;;;;;;14.40;8.40;;;;;;;18.32;69.22;95072.13;4182857;28;20056;-74
2023/09/08 03:35:49;;;;;;;12.30;8.23;;;;;;;18.38;68.97;95068.69;4188155;28;20115;-76
2023/09/08 03:37:51;;;;;;;11.75;7.88;;;;;;;18.43;68.98;95062.78;4190623;28;20071;-74
2023/09/08 03:39:53;;;;;;;11.60;8.65;;;;;;;18.54;68.52;95069.34;4190311;28;20060;-76
2023/09/08 03:41:54;;;;;;;13.05;8.68;;;;;;;18.59;68.55;95073.06;4192221;28;20408;-74
2023/09/08 03:43:56;;;;;;;13.32;8.48;;;;;;;18.63;68.50;95076.13;4190192;28;20138;-74
2023/09/08 03:45:58;;;;;;;12.43;8.45;;;;;;;18.67;68.10;95081.84;4194838;28;20044;-74
2023/09/08 03:48:00;;;;;;;13.48;8.13;;;;;;;18.70;68.22;95076.16;4194560;28;20139;-72
2023/09/08 03:50:02;;;;;;;9.98;7.88;;;;;;;18.75;67.88;95077.16;4196065;28;20050;-74
2023/09/08 03:52:04;;;;;;;11.55;8.88;;;;;;;18.81;67.74;95073.75;4198264;28;20044;-73
2023/09/08 03:54:06;;;;;;;13.20;8.77;;;;;;;18.85;67.46;95073.38;4199191;28;20074;-75
2023/09/08 03:56:07;;;;;;;10.77;8.77;;;;;;;18.91;67.65;95075.22;4207822;28;20045;-73
2023/09/08 03:58:09;;;;;;;18.00;9.77;;;;;;;18.95;67.24;95077.28;4175695;28;20155;-75
2023/09/08 04:00:11;;;;;;;14.55;10.50;;;;;;;18.96;67.40;95076.22;4195399;28;20442;-75
2023/09/08 04:02:13;;;;;;;13.65;9.38;;;;;;;18.97;67.40;95075.22;4196263;28;20110;-76
2023/09/08 04:04:15;;;;;;;11.93;8.77;;;;;;;19.00;67.24;95081.97;4176717;28;20098;-77
2023/09/08 04:06:17;;;;;;;10.40;8.30;;;;;;;19.02;67.16;95079.94;4193485;28;20099;-75
2023/09/08 04:08:19;;;;;;;13.63;8.20;;;;;;;19.05;67.09;95076.03;4187250;28;20052;-77
2023/09/08 04:10:20;;;;;;;16.08;8.48;;;;;;;19.10;66.91;95081.56;4186619;28;20040;-76
2023/09/08 04:12:22;;;;;;;10.90;8.98;;;;;;;19.09;67.00;95075.44;4182698;28;20053;-75
2023/09/08 04:14:26;;;;;;;11.77;8.27;;;;;;;19.08;67.16;95078.28;4180879;28;20041;-77
2023/09/08 04:16:29;;;;;;;11.93;8.50;;;;;;;19.07;66.86;95081.97;4188657;28;20409;-75
2023/09/08 04:18:31;;;;;;;11.75;8.85;;;;;;;19.05;67.16;95076.03;4168640;28;20060;-75
2023/09/08 04:20:33;;;;;;;13.85;8.20;;;;;;;19.05;67.09;95071.53;4181004;28;20048;-75
2023/09/08 04:22:35;;;;;;;13.32;8.30;;;;;;;19.05;66.52;95079.50;4178770;28;20071;-76
2023/09/08 04:24:37;;;;;;;9.75;8.05;;;;;;;19.04;66.57;95077.91;4180819;28;20436;-77
2023/09/08 04:26:39;;;;;;;14.45;8.48;;;;;;;19.03;66.51;95084.22;4189673;28;20048;-74
2023/09/08 04:28:42;;;;;;;10.98;8.40;;;;;;;19.01;66.63;95083.59;4181158;28;20730;-75
2023/09/08 04:30:44;;;;;;;12.88;8.70;;;;;;;18.99;66.85;95082.97;4193232;28;20048;-75
2023/09/08 04:32:45;;;;;;;11.68;8.63;;;;;;;18.99;66.75;95086.47;4172834;28;20111;-73
2023/09/08 04:34:49;;;;;;;11.55;8.65;;;;;;;19.05;66.53;95089.31;4190931;28;20056;-77
2023/09/08 04:36:50;;;;;;;12.35;8.45;;;;;;;19.10;66.56;95086.88;4189786;28;20052;-75
2023/09/08 04:38:52;;;;;;;10.93;8.75;;;;;;;19.12;66.53;95092.78;4190415;28;20519;-76
2023/09/08 04:40:54;;;;;;;13.90;9.07;;;;;;;19.07;66.75;95093.41;4188599;28;20053;-75
2023/09/08 04:42:55;;;;;;;13.27;8.00;;;;;;;19.04;66.79;95088.50;4192570;28;20040;-76
2023/09/08 04:44:57;;;;;;;16.45;8.80;;;;;;;19.09;66.94;95088.72;4188225;28;20131;-76
2023/09/08 04:46:59;;;;;;;11.88;8.52;;;;;;;19.13;66.77;95084.63;4185662;28;20052;-78
2023/09/08 04:49:01;;;;;;;11.20;8.50;;;;;;;19.14;66.89;95091.56;4193233;28;20399;-75
2023/09/08 04:51:02;;;;;;;14.45;9.77;;;;;;;19.17;67.03;95087.72;4174689;28;20048;-76
2023/09/08 04:53:05;;;;;;;11.63;8.48;;;;;;;19.17;67.04;95080.56;4176212;28;20527;-74
2023/09/08 04:55:07;;;;;;;10.55;8.77;;;;;;;19.20;66.98;95087.28;4195238;28;20056;-75
2023/09/08 04:57:08;;;;;;;11.63;8.50;;;;;;;19.24;66.70;95088.53;4185115;28;20212;-75
2023/09/08 04:59:23;;;;;;;21.35;9.45;;;;;;;19.32;66.62;95087.53;4180590;28;20420;-75
2023/09/08 05:01:25;;;;;;;15.85;9.45;;;;;;;19.39;66.44;95085.69;4190871;28;20124;-75
2023/09/08 05:03:27;;;;;;;25.02;9.68;;;;;;;19.46;66.23;95091.78;4171788;28;20262;-76
2023/09/08 05:05:29;;;;;;;14.23;8.98;;;;;;;19.54;66.00;95085.47;4179765;28;20045;-75
2023/09/08 05:07:30;;;;;;;13.65;9.93;;;;;;;19.57;66.18;95087.72;4189254;28;20072;-74
2023/09/08 05:09:33;;;;;;;11.43;9.10;;;;;;;19.64;65.70;95089.34;4194006;28;20055;-75
2023/09/08 05:11:35;;;;;;;18.05;9.68;;;;;;;19.67;65.76;95092.63;4182216;28;20045;-74
2023/09/08 05:13:37;;;;;;;13.15;8.57;;;;;;;19.73;65.78;95087.31;4190000;28;20075;-74
2023/09/08 05:15:39;;;;;;;12.60;9.25;;;;;;;19.76;65.30;95092.22;4192179;28;20045;-76
2023/09/08 05:17:41;;;;;;;15.02;9.73;;;;;;;19.81;65.20;95089.78;4178168;28;20049;-79
2023/09/08 05:19:43;;;;;;;10.63;8.10;;;;;;;19.87;64.87;95092.63;4188914;28;20476;-75
2023/09/08 05:21:44;;;;;;;14.15;7.90;;;;;;;19.95;64.54;95087.91;4169131;28;20056;-76
2023/09/08 05:23:46;;;;;;;9.60;7.60;;;;;;;20.06;63.78;95089.09;4190468;28;20078;-76
2023/09/08 05:25:48;;;;;;;15.45;8.02;;;;;;;20.21;63.40;95083.53;4189650;28;20051;-76
2023/09/08 05:27:50;;;;;;;10.98;8.07;;;;;;;20.27;62.61;95085.38;4190803;28;20481;-78
2023/09/08 05:29:52;;;;;;;12.10;7.22;;;;;;;20.28;62.61;95084.31;4168890;28;20135;-77
2023/09/08 05:31:54;;;;;;;11.75;7.38;;;;;;;20.33;61.90;95084.53;4193796;28;20091;-75
2023/09/08 05:33:56;;;;;;;10.65;7.07;;;;;;;20.27;61.50;95093.34;4187978;28;20048;-77
2023/09/08 05:35:58;;;;;;;24.33;7.97;;;;;;;20.31;61.30;95085.78;4190731;28;20094;-75
2023/09/08 05:37:59;;;;;;;10.13;6.63;;;;;;;20.38;60.88;95089.22;4194121;28;20129;-77
2023/09/08 05:40:01;;;;;;;13.82;7.28;;;;;;;20.49;60.67;95091.22;4188891;28;20121;-78
2023/09/08 05:42:03;;;;;;;11.10;7.22;;;;;;;20.54;59.96;95091.41;4188473;28;20048;-81
2023/09/08 05:44:05;;;;;;;11.13;6.88;;;;;;;20.59;59.93;95099.59;4189306;28;20118;-79
2023/09/08 05:46:07;;;;;;;10.63;6.70;;;;;;;20.73;60.01;95089.69;4182215;28;20094;-79
2023/09/08 05:48:09;;;;;;;9.60;6.90;;;;;;;20.69;59.63;95090.34;4172211;28;20053;-76
2023/09/08 05:50:11;;;;;;;13.70;7.10;;;;;;;20.77;59.43;95095.44;4190931;28;20049;-75
2023/09/08 05:52:12;;;;;;;12.20;6.55;;;;;;;20.84;59.59;95091.72;4187996;28;20060;-77
2023/09/08 05:54:14;;;;;;;11.30;6.65;;;;;;;20.88;58.69;95100.06;4198273;28;20135;-77
2023/09/08 05:56:18;;;;;;;14.32;7.00;;;;;;;20.99;58.87;95095.91;4186446;28;20087;-75
2023/09/08 05:58:20;;;;;;;14.38;6.28;;;;;;;21.02;57.63;95100.81;4200003;28;20068;-75
2023/09/08 06:00:22;;;;;;;10.48;5.63;;;;;;;21.01;56.95;95102.66;4198895;28;20052;-74
2023/09/08 06:02:24;;;;;;;9.15;6.15;;;;;;;20.94;56.09;95106.41;4197879;28;20052;-78
2023/09/08 06:04:26;;;;;;;9.00;5.88;;;;;;;20.84;55.93;95106.84;4161909;28;20053;-75
2023/09/08 06:06:28;;;;;;;10.48;5.82;;;;;;;20.76;55.66;95101.78;4185785;28;20040;-78
2023/09/08 06:08:30;;;;;;;12.32;5.53;;;;;;;20.82;55.67;95099.09;4189242;28;20045;-76
2023/09/08 06:10:32;;;;;;;9.40;5.07;;;;;;;20.89;55.61;95107.03;4179584;28;20243;-76
2023/09/08 06:12:33;;;;;;;11.52;5.88;;;;;;;20.96;55.08;95107.00;4165513;28;20050;-80
2023/09/08 06:14:35;;;;;;;10.38;5.65;;;;;;;21.09;55.13;95101.59;4174405;28;20157;-75
2023/09/08 06:16:37;;;;;;;7.30;5.13;;;;;;;21.19;54.78;95103.81;4165275;28;20136;-76
2023/09/08 06:18:43;;;;;;;8.93;5.32;;;;;;;21.22;54.44;95101.50;4166172;28;20097;-76
2023/09/08 06:20:46;;;;;;;10.18;7.18;;;;;;;21.27;54.54;95101.69;4195137;28;20056;-77
2023/09/08 06:22:48;;;;;;;7.70;5.53;;;;;;;21.26;53.93;95108.03;4193209;28;20048;-77
2023/09/08 06:24:50;;;;;;;10.52;5.88;;;;;;;21.38;53.57;95104.66;4181709;28;20060;-77
2023/09/08 06:26:52;;;;;;;9.32;5.32;;;;;;;21.51;53.73;95107.28;4192551;28;20055;-77
2023/09/08 06:28:54;;;;;;;9.15;4.90;;;;;;;21.59;52.99;95108.84;4175748;28;20115;-79
2023/09/08 06:30:55;;;;;;;14.30;5.38;;;;;;;21.65;52.79;95111.47;4184292;28;20060;-79
2023/09/08 06:32:57;;;;;;;6.60;4.68;;;;;;;21.75;52.42;95118.19;4191850;28;20059;-77
2023/09/08 06:34:59;;;;;;;7.03;4.50;;;;;;;21.78;51.99;95120.38;4196241;28;20395;-77
2023/09/08 06:37:02;;;;;;;9.38;5.65;;;;;;;21.82;51.49;95119.72;4197135;28;20059;-77
2023/09/08 06:39:04;;;;;;;8.90;4.95;;;;;;;21.96;51.51;95123.09;4196436;28;20488;-78
2023/09/08 06:41:10;;;;;;;6.80;4.95;;;;;;;22.06;51.20;95123.41;4196956;28;20052;-75
2023/09/08 06:43:12;;;;;;;7.10;4.60;;;;;;;22.07;50.88;95124.25;4190868;28;20129;-77
2023/09/08 06:45:14;;;;;;;12.13;4.45;;;;;;;22.15;50.54;95125.78;4185592;28;20044;-77
2023/09/08 06:47:16;;;;;;;8.77;4.68;;;;;;;22.27;50.29;95124.06;4191244;28;20439;-75
2023/09/08 06:49:18;;;;;;;9.45;4.45;;;;;;;22.41;49.68;95119.38;4169787;28;20468;-77
2023/09/08 06:51:20;;;;;;;12.13;4.65;;;;;;;22.49;48.35;95130.56;4195234;28;20185;-76
2023/09/08 06:53:25;;;;;;;8.90;4.05;;;;;;;22.50;47.81;95128.75;4195939;28;20147;-75
2023/09/08 06:55:28;;;;;;;7.30;3.67;;;;;;;22.44;47.07;95130.44;4196038;28;20094;-77
2023/09/08 06:57:30;;;;;;;6.70;4.07;;;;;;;22.56;46.91;95127.81;4170487;28;20612;-76
2023/09/08 06:59:31;;;;;;;14.18;4.35;;;;;;;22.72;47.43;95121.09;4191993;28;20207;-76
2023/09/08 07:01:35;;;;;;;13.02;4.80;;;;;;;22.74;46.87;95128.88;4198278;28;20043;-76
2023/09/08 07:03:37;;;;;;;7.57;3.67;;;;;;;22.85;46.82;95126.25;4184200;28;20045;-75
2023/09/08 07:05:40;;;;;;;9.23;4.07;;;;;;;22.88;47.04;95125.78;4194746;28;20045;-77
2023/09/08 07:07:43;;;;;;;9.80;4.00;;;;;;;22.91;46.43;95124.53;4163868;28;20485;-76
2023/09/08 07:09:45;;;;;;;;;;;;;;;22.54;46.25;95126.44;4196723;28;20041;-77
2023/09/08 07:11:46;;;;;;;4.60;3.47;;;;;;;22.61;45.86;95124.50;4196123;28;19951;-76
2023/09/08 07:13:48;;;;;;;6.43;3.97;;;;;;;22.79;46.12;95132.50;4195120;28;20066;-77
2023/09/08 07:15:50;;;;;;;6.88;3.58;;;;;;;22.80;45.42;95131.47;4193762;28;20056;-74
2023/09/08 07:17:52;;;;;;;10.32;3.63;;;;;;;22.94;45.77;95124.09;4186079;28;20458;-77
2023/09/08 07:19:54;;;;;;;7.55;3.83;;;;;;;22.94;45.05;95124.09;4177913;28;20052;-74
2023/09/08 07:21:56;;;;;;;7.80;3.60;;;;;;;22.92;45.25;95122.69;4196536;28;20056;-78
2023/09/08 07:23:58;;;;;;;5.05;3.28;;;;;;;22.90;44.03;95121.03;4184872;28;20048;-75
2023/09/08 07:26:00;;;;;;;8.55;3.85;;;;;;;22.94;44.92;95120.59;4195755;28;20067;-76
2023/09/08 07:28:01;;;;;;;5.38;3.15;;;;;;;23.05;44.74;95123.34;4196127;28;20055;-76
2023/09/08 07:30:04;;;;;;;6.07;3.58;;;;;;;23.17;44.36;95119.91;4194169;28;20106;-78
2023/09/08 07:32:06;;;;;;;4.85;3.55;;;;;;;23.23;44.09;95113.63;4173634;28;20073;-78
2023/09/08 07:34:08;;;;;;;5.57;4.10;;;;;;;23.26;44.17;95116.69;4193746;28;20106;-77
2023/09/08 07:36:10;;;;;;;6.35;3.72;;;;;;;23.13;43.86;95116.06;4192101;28;20095;-78
2023/09/08 07:38:12;;;;;;;4.95;3.50;;;;;;;23.25;43.58;95115.06;4176990;28;20086;-76
2023/09/08 07:40:13;;;;;;;6.32;3.35;;;;;;;23.35;43.74;95114.50;4178928;28;20053;-76
2023/09/08 07:42:15;;;;;;;9.88;4.47;;;;;;;23.44;43.32;95115.78;4178623;28;20044;-76
2023/09/08 07:44:17;;;;;;;6.80;3.75;;;;;;;23.39;43.18;95117.53;4186386;28;20049;-75
2023/09/08 07:46:19;;;;;;;8.68;3.75;;;;;;;23.57;43.23;95114.75;4191335;28;20052;-77
2023/09/08 07:48:21;;;;;;;6.65;3.38;;;;;;;23.51;42.85;95111.16;4172148;28;20060;-76
2023/09/08 07:50:27;;;;;;;5.90;3.75;;;;;;;23.52;43.29;95114.66;4191864;28;20209;-75
2023/09/08 07:52:28;;;;;;;6.22;3.65;;;;;;;23.67;42.93;95117.69;4179328;28;20098;-78
2023/09/08 07:54:30;;;;;;;4.68;3.22;;;;;;;23.85;42.13;95113.31;4180642;28;20404;-75
2023/09/08 07:56:32;;;;;;;9.43;3.35;;;;;;;23.96;42.31;95115.19;4192433;28;20051;-78
2023/09/08 07:58:34;;;;;;;7.03;3.60;;;;;;;24.07;41.78;95106.34;4169460;28;20113;-76
2023/09/08 08:00:36;;;;;;;4.35;3.42;;;;;;;24.12;41.88;95113.69;4176674;28;20100;-76
2023/09/08 08:02:51;;;;;;;7.28;4.00;;;;;;;24.26;42.03;95108.88;4192825;28;20060;-76
2023/09/08 08:04:53;;;;;;;5.72;3.65;;;;;;;24.39;41.22;95111.31;4176184;28;20099;-76
2023/09/08 08:06:55;;;;;;;10.82;3.72;;;;;;;24.54;41.48;95113.53;4194606;28;20128;-78
2023/09/08 08:08:56;;;;;;;5.50;4.13;;;;;;;23.88;41.90;95119.03;4194576;28;20276;-78
2023/09/08 08:11:02;;;;;;;7.25;3.88;;;;;;;23.75;42.37;95108.53;4197250;28;20048;-77
2023/09/08 08:13:03;;;;;;;6.65;3.67;;;;;;;23.71;42.07;95102.81;4204068;28;20059;-77
2023/09/08 08:15:06;;;;;;;5.70;3.67;;;;;;;23.73;42.04;95109.81;4178047;28;20052;-76
2023/09/08 08:17:08;;;;;;;9.98;3.90;;;;;;;23.75;42.43;95113.03;4169137;28;20184;-76
2023/09/08 08:19:09;;;;;;;8.82;4.28;;;;;;;23.78;42.23;95107.28;4180140;28;20800;-78
2023/09/08 08:21:11;;;;;;;5.60;3.78;;;;;;;23.64;41.76;95101.28;4185828;28;20068;-77
2023/09/08 08:23:13;;;;;;;5.63;3.83;;;;;;;23.45;42.31;95098.72;4185260;28;20053;-78
2023/09/08 08:25:15;;;;;;;7.32;3.95;;;;;;;23.37;42.72;95092.88;4181018;28;20106;-75
2023/09/08 08:27:17;;;;;;;4.72;3.30;;;;;;;23.36;42.46;95099.25;4178442;28;20509;-77
2023/09/08 08:29:19;;;;;;;7.00;3.97;;;;;;;23.61;42.25;95102.56;4185731;28;20048;-76
2023/09/08 08:31:21;;;;;;;5.75;3.60;;;;;;;23.87;42.30;95097.84;4176845;28;20053;-75
2023/09/08 08:33:25;;;;;;;8.27;4.30;;;;;;;24.09;41.97;95103.44;4192833;28;20506;-76
2023/09/08 08:35:27;;;;;;;6.10;4.30;;;;;;;24.32;42.08;95097.25;4184145;28;20191;-76
2023/09/08 08:37:28;;;;;;;4.88;3.50;;;;;;;24.34;41.93;95100.50;4169836;28;20037;-78
2023/09/08 08:39:30;;;;;;;5.80;3.58;;;;;;;24.46;41.45;95097.81;4180870;28;20053;-77
2023/09/08 08:41:34;;;;;;;7.45;2.85;;;;;;;24.56;40.85;95086.53;4190840;28;20110;-78
2023/09/08 08:43:36;;;;;;;6.22;3.50;;;;;;;24.60;41.12;95085.81;4195216;28;20048;-74
2023/09/08 08:45:39;;;;;;;5.95;3.50;;;;;;;24.44;40.67;95084.66;4168564;28;20045;-75
2023/09/08 08:47:41;;;;;;;16.10;4.63;;;;;;;24.40;40.56;95088.84;4187641;28;20403;-76
2023/09/08 08:49:47;;;;;;;6.10;3.50;;;;;;;24.37;41.49;95088.50;4191643;28;20052;-76
2023/09/08 08:51:50;;;;;;;10.98;3.55;;;;;;;24.51;41.17;95079.19;4201496;28;20291;-77
2023/09/08 08:53:52;;;;;;;6.85;3.35;;;;;;;24.62;40.28;95083.69;4176536;28;20057;-76
2023/09/08 08:55:56;;;;;;;7.85;3.92;;;;;;;24.62;40.40;95082.91;4150295;28;20432;-77
2023/09/08 08:58:03;;;;;;;6.45;3.42;;;;;;;24.88;40.27;95073.47;4182624;28;20124;-78
2023/09/08 09:00:09;;;;;;;6.70;3.20;;;;;;;25.04;39.86;95079.97;4192767;28;20091;-77
2023/09/08 09:02:12;;;;;;;6.68;3.30;;;;;;;25.14;40.07;95078.28;4193914;28;20122;-78
2023/09/08 09:04:14;;;;;;;6.30;3.20;;;;;;;25.09;39.74;95080.03;4180743;28;20404;-77
2023/09/08 09:06:16;;;;;;;9.93;3.88;;;;;;;24.93;39.27;95082.44;4180760;28;20113;-77
2023/09/08 09:08:18;;;;;;;7.65;3.42;;;;;;;24.76;39.38;95078.06;4187905;28;20426;-76
2023/09/08 09:10:20;;;;;;;5.53;3.60;;;;;;;24.56;40.08;95081.97;4179991;28;20064;-77
2023/09/08 09:12:22;;;;;;;5.57;3.00;;;;;;;24.56;39.85;95070.44;4180962;28;20065;-79
2023/09/08 09:14:24;;;;;;;6.68;3.42;;;;;;;24.63;39.85;95081.84;4193522;28;20049;-77
2023/09/08 09:16:26;;;;;;;4.75;3.33;;;;;;;24.68;40.16;95080.06;4193501;28;20068;-76
2023/09/08 09:18:29;;;;;;;10.50;3.30;;;;;;;24.74;40.24;95083.69;4194400;28;20049;-77
2023/09/08 09:20:32;;;;;;;10.55;3.45;;;;;;;24.67;39.75;95078.47;4191391;28;20116;-78
2023/09/08 09:22:36;;;;;;;9.73;3.53;;;;;;;24.72;39.78;95075.88;4189250;28;20072;-81
2023/09/08 09:24:41;;;;;;;8.60;3.75;;;;;;;24.89;40.07;95089.34;4186713;28;20055;-76
2023/09/08 09:26:43;;;;;;;9.32;3.10;;;;;;;25.05;39.19;95085.06;4186034;28;20417;-77
2023/09/08 09:28:48;;;;;;;7.80;3.58;;;;;;;24.97;39.09;95081.94;4176537;28;20050;-76
2023/09/08 09:30:51;;;;;;;18.73;4.65;;;;;;;24.86;39.28;95079.06;4174474;28;20782;-77
2023/09/08 09:33:03;;;;;;;;;;;;;;;24.75;39.44;95079.94;4191663;28;20110;-76